createdAt,value
2023-02-09T00:01:31.131Z,71.00
2023-02-09T00:03:59.754Z,71.00
2023-02-09T00:06:29.774Z,71.20
2023-02-09T00:08:58.659Z,71.40
2023-02-09T00:11:47.554Z,71.60
2023-02-09T00:14:19.637Z,71.90
2023-02-09T00:16:49.224Z,71.60
2023-02-09T00:19:17.509Z,71.40
2023-02-09T00:21:44.915Z,71.60
2023-02-09T00:24:12.881Z,71.40
2023-02-09T00:26:41.614Z,71.30
2023-02-09T00:29:09.760Z,71.40
2023-02-09T00:31:37.656Z,71.30
2023-02-09T00:34:05.346Z,71.30
2023-02-09T00:36:33.083Z,70.50
2023-02-09T00:39:00.439Z,71.40
2023-02-09T00:41:46.284Z,71.60
2023-02-09T00:44:13.951Z,71.80
2023-02-09T00:46:42.049Z,71.80
2023-02-09T00:49:09.456Z,71.70
2023-02-09T00:51:37.006Z,71.70
2023-02-09T00:54:04.513Z,71.50
2023-02-09T00:56:32.054Z,71.80
2023-02-09T00:59:00.467Z,71.70
2023-02-09T01:01:28.171Z,71.90
2023-02-09T01:03:56.684Z,72.30
2023-02-09T01:06:23.985Z,72.50
2023-02-09T01:08:51.284Z,72.40
2023-02-09T01:11:19.118Z,71.30
2023-02-09T01:13:50.107Z,71.30
2023-02-09T01:16:18.369Z,72.10
2023-02-09T01:18:45.834Z,72.30
2023-02-09T01:21:16.699Z,72.30
2023-02-09T01:23:44.982Z,72.50
2023-02-09T01:26:13.897Z,72.40
2023-02-09T01:28:41.742Z,72.40
2023-02-09T01:31:28.827Z,72.40
2023-02-09T01:33:58.080Z,72.50
2023-02-09T01:36:29.023Z,72.50
2023-02-09T01:38:58.572Z,72.40
2023-02-09T01:41:26.739Z,72.40
2023-02-09T01:44:04.323Z,72.60
2023-02-09T01:46:34.535Z,72.60
2023-02-09T01:49:07.470Z,72.50
2023-02-09T01:51:48.302Z,72.80
2023-02-09T01:54:20.783Z,72.80
2023-02-09T01:57:06.839Z,72.30
2023-02-09T01:59:38.315Z,73.00
2023-02-09T02:02:08.540Z,73.30
2023-02-09T02:04:36.735Z,73.40
2023-02-09T02:07:14.485Z,73.20
2023-02-09T02:09:42.998Z,73.50
2023-02-09T02:12:10.608Z,72.70
2023-02-09T02:14:39.676Z,74.00
2023-02-09T02:17:19.993Z,74.00
2023-02-09T02:20:08.387Z,74.00
2023-02-09T02:23:04.085Z,74.10
2023-02-09T02:26:11.869Z,73.90
2023-02-09T02:29:05.367Z,74.00
2023-02-09T02:32:01.332Z,73.80
2023-02-09T02:34:40.898Z,73.90
2023-02-09T02:37:18.793Z,74.10
2023-02-09T02:39:57.504Z,74.20
2023-02-09T02:42:48.215Z,74.40
2023-02-09T02:45:40.488Z,74.50
2023-02-09T02:48:21.594Z,74.50
2023-02-09T02:51:08.178Z,75.20
2023-02-09T02:53:37.570Z,74.90
2023-02-09T02:56:14.198Z,74.70
2023-02-09T02:58:44.338Z,74.70
2023-02-09T03:01:16.237Z,74.70
2023-02-09T03:03:46.204Z,74.60
2023-02-09T03:06:14.542Z,74.50
2023-02-09T03:08:54.024Z,74.70
2023-02-09T03:11:23.528Z,74.90
2023-02-09T03:14:01.350Z,75.10
2023-02-09T03:16:45.440Z,75.20
2023-02-09T03:19:22.133Z,75.30
2023-02-09T03:21:57.400Z,75.60
2023-02-09T03:24:39.963Z,75.80
2023-02-09T03:27:16.953Z,75.90
2023-02-09T03:29:47.714Z,75.90
2023-02-09T03:32:17.473Z,75.80
2023-02-09T03:34:45.748Z,75.80
2023-02-09T03:37:13.451Z,75.80
2023-02-09T03:39:40.937Z,76.30
2023-02-09T03:42:08.343Z,75.60
2023-02-09T03:44:36.010Z,75.70
2023-02-09T03:47:07.027Z,75.80
2023-02-09T03:49:39.587Z,76.00
2023-02-09T03:52:09.938Z,76.00
2023-02-09T03:54:37.875Z,76.10
2023-02-09T03:57:06.324Z,76.20
2023-02-09T03:59:37.642Z,76.20
2023-02-09T04:02:06.882Z,76.10
2023-02-09T04:04:35.168Z,76.20
2023-02-09T04:07:03.071Z,76.10
2023-02-09T04:09:30.748Z,76.20
2023-02-09T04:11:58.041Z,76.40
2023-02-09T04:14:25.430Z,76.60
2023-02-09T04:16:52.754Z,76.80
2023-02-09T04:19:20.049Z,76.60
2023-02-09T04:21:47.485Z,76.70
2023-02-09T04:24:15.224Z,76.60
2023-02-09T04:26:42.480Z,76.70
2023-02-09T04:29:09.775Z,76.90
2023-02-09T04:31:37.178Z,76.80
2023-02-09T04:34:04.670Z,76.80
2023-02-09T04:36:32.215Z,76.70
2023-02-09T04:38:59.585Z,76.50
2023-02-09T04:41:27.019Z,77.30
2023-02-09T04:43:54.382Z,76.90
2023-02-09T04:46:21.697Z,76.00
2023-02-09T04:48:48.988Z,76.10
2023-02-09T04:51:16.538Z,76.40
2023-02-09T04:53:43.975Z,76.00
2023-02-09T04:56:15.289Z,76.40
2023-02-09T04:59:02.162Z,76.60
2023-02-09T05:01:30.328Z,76.80
2023-02-09T05:03:57.734Z,76.70
2023-02-09T05:06:25.186Z,76.70
2023-02-09T05:08:52.459Z,76.60
2023-02-09T05:11:19.799Z,76.40
2023-02-09T05:13:47.395Z,76.40
2023-02-09T05:16:17.587Z,76.40
2023-02-09T05:18:45.365Z,76.60
2023-02-09T05:21:14.195Z,77.00
2023-02-09T05:23:42.692Z,76.90
2023-02-09T05:26:10.003Z,76.50
2023-02-09T05:28:37.365Z,77.00
2023-02-09T05:31:04.880Z,77.00
2023-02-09T05:33:32.251Z,77.10
2023-02-09T05:35:59.948Z,77.20
2023-02-09T05:38:27.504Z,77.50
2023-02-09T05:40:54.818Z,77.50
2023-02-09T05:43:22.523Z,77.50
2023-02-09T05:45:49.937Z,77.50
2023-02-09T05:48:17.439Z,77.40
2023-02-09T05:50:45.004Z,77.20
2023-02-09T05:53:15.340Z,76.90
2023-02-09T05:55:43.863Z,76.70
2023-02-09T05:58:11.224Z,76.70
2023-02-09T06:00:38.530Z,76.60
2023-02-09T06:03:06.414Z,76.70
2023-02-09T06:05:33.892Z,77.30
2023-02-09T06:08:01.256Z,76.10
2023-02-09T06:10:28.549Z,77.10
2023-02-09T06:12:55.884Z,77.20
2023-02-09T06:15:23.297Z,77.20
2023-02-09T06:17:50.619Z,77.20
2023-02-09T06:20:18.131Z,77.10
2023-02-09T06:22:45.380Z,77.00
2023-02-09T06:25:12.920Z,77.00
2023-02-09T06:27:40.405Z,77.20
2023-02-09T06:30:08.637Z,77.50
2023-02-09T06:32:37.245Z,77.40
2023-02-09T06:35:05.485Z,77.20
2023-02-09T06:37:33.455Z,76.80
2023-02-09T06:40:02.881Z,77.30
2023-02-09T06:42:43.589Z,77.40
2023-02-09T06:45:16.469Z,77.60
2023-02-09T06:47:45.083Z,77.80
2023-02-09T06:50:14.649Z,78.10
2023-02-09T06:52:42.279Z,78.40
2023-02-09T06:55:09.805Z,78.50
2023-02-09T06:57:37.206Z,78.20
2023-02-09T07:00:07.129Z,78.00
2023-02-09T07:02:34.921Z,78.20
2023-02-09T07:05:02.279Z,78.10
2023-02-09T07:07:29.654Z,78.00
2023-02-09T07:09:56.922Z,78.20
2023-02-09T07:12:24.501Z,78.30
2023-02-09T07:14:52.978Z,78.30
2023-02-09T07:17:20.357Z,78.20
2023-02-09T07:19:47.888Z,78.20
2023-02-09T07:22:15.735Z,79.00
2023-02-09T07:24:43.043Z,78.30
2023-02-09T07:27:10.367Z,78.30
2023-02-09T07:29:37.754Z,78.40
2023-02-09T07:32:07.362Z,78.50
2023-02-09T07:34:35.368Z,78.80
2023-02-09T07:37:04.096Z,78.90
2023-02-09T07:39:31.780Z,79.10
2023-02-09T07:41:59.785Z,79.30
2023-02-09T07:44:42.542Z,79.60
2023-02-09T07:47:10.190Z,79.50
2023-02-09T07:49:37.479Z,79.80
2023-02-09T07:52:05.276Z,79.80
2023-02-09T07:54:34.790Z,80.20
2023-02-09T07:57:02.310Z,80.60
2023-02-09T07:59:30.461Z,80.70
2023-02-09T08:01:58.616Z,80.30
2023-02-09T08:04:26.189Z,81.00
2023-02-09T08:06:54.867Z,81.60
2023-02-09T08:09:22.615Z,82.00
2023-02-09T08:11:54.174Z,82.30
2023-02-09T08:14:48.344Z,83.20
2023-02-09T08:17:23.074Z,82.40
2023-02-09T08:19:56.041Z,82.80
2023-02-09T08:22:25.124Z,83.10
2023-02-09T08:24:53.493Z,83.30
2023-02-09T08:27:20.868Z,83.20
2023-02-09T08:29:49.149Z,83.20
2023-02-09T08:32:16.534Z,83.20
2023-02-09T08:34:43.934Z,83.20
2023-02-09T08:37:12.287Z,84.10
2023-02-09T08:39:39.638Z,83.90
2023-02-09T08:42:07.080Z,83.20
2023-02-09T08:44:34.453Z,82.10
2023-02-09T08:47:02.010Z,81.10
2023-02-09T08:49:29.532Z,80.90
2023-02-09T08:51:56.978Z,79.80
2023-02-09T08:54:28.109Z,80.00
2023-02-09T08:57:42.804Z,79.00
2023-02-09T09:00:13.256Z,77.80
2023-02-09T09:02:40.799Z,76.70
2023-02-09T09:05:08.848Z,75.40
2023-02-09T09:07:36.864Z,75.20
2023-02-09T09:10:04.587Z,73.20
2023-02-09T09:12:38.381Z,71.90
2023-02-09T09:15:08.149Z,71.00
2023-02-09T09:21:38.855Z,70.60
2023-02-09T09:25:05.408Z,68.90
2023-02-09T09:27:34.866Z,67.40
2023-02-09T09:30:03.879Z,65.40
2023-02-09T09:32:31.501Z,64.80
2023-02-09T09:34:59.274Z,62.50
2023-02-09T09:37:26.871Z,60.40
2023-02-09T09:39:54.149Z,61.60
2023-02-09T09:42:32.478Z,59.70
2023-02-09T09:45:00.497Z,60.70
2023-02-09T09:47:46.005Z,58.70
2023-02-09T09:50:28.132Z,59.70
2023-02-09T09:53:07.727Z,58.70
2023-02-09T09:55:38.383Z,57.50
2023-02-09T10:02:27.803Z,55.30
2023-02-09T10:05:23.616Z,55.70
2023-02-09T10:12:04.955Z,55.50
2023-02-09T10:14:35.069Z,53.40
2023-02-09T10:17:05.177Z,52.90
2023-02-09T10:19:32.770Z,52.40
2023-02-09T10:22:00.288Z,52.40
2023-02-09T10:36:31.681Z,53.80
2023-02-09T10:39:25.640Z,53.20
2023-02-09T10:41:55.779Z,54.10
2023-02-09T10:49:43.064Z,53.50
2023-02-09T10:52:34.302Z,55.30
2023-02-09T10:55:41.740Z,54.50
2023-02-09T11:01:10.059Z,55.70
2023-02-09T11:04:21.226Z,54.90
2023-02-09T11:24:54.349Z,56.70
2023-02-09T11:30:52.266Z,57.90
2023-02-09T11:33:29.645Z,58.30
2023-02-09T11:36:45.457Z,58.90
2023-02-09T11:42:46.261Z,58.30
2023-02-09T11:45:36.470Z,58.60
2023-02-09T11:48:39.734Z,58.70
2023-02-09T11:51:21.595Z,59.00
2023-02-09T11:54:17.571Z,59.10
2023-02-09T11:56:53.196Z,58.80
2023-02-09T12:03:15.888Z,59.30
2023-02-09T12:05:49.962Z,59.40
2023-02-09T12:08:42.578Z,59.10
2023-02-09T12:11:33.405Z,59.60
2023-02-09T12:14:26.713Z,59.50
2023-02-09T12:17:12.957Z,59.00
2023-02-09T12:20:08.254Z,59.70
2023-02-09T12:22:51.558Z,59.40
2023-02-09T12:25:53.284Z,59.70
2023-02-09T12:28:27.730Z,60.00
2023-02-09T12:30:59.167Z,59.30
2023-02-09T12:33:27.367Z,59.40
2023-02-09T12:39:44.304Z,59.30
2023-02-09T12:42:24.533Z,59.40
2023-02-09T12:45:06.330Z,58.80
2023-02-09T12:47:45.843Z,58.90
2023-02-09T12:50:24.812Z,59.20
2023-02-09T12:53:22.680Z,59.30
2023-02-09T12:56:12.756Z,59.60
2023-02-09T12:58:45.313Z,59.00
2023-02-09T13:01:16.563Z,59.10
2023-02-09T13:04:19.543Z,59.70
2023-02-09T13:06:59.287Z,58.80
2023-02-09T13:09:33.291Z,59.20
2023-02-09T13:12:15.862Z,58.70
2023-02-09T13:14:51.042Z,59.00
2023-02-09T13:18:04.231Z,59.30
2023-02-09T13:20:38.684Z,59.70
2023-02-09T13:23:22.843Z,59.90
2023-02-09T13:26:02.279Z,60.00
2023-02-09T13:28:33.853Z,60.20
2023-02-09T13:31:05.274Z,60.00
2023-02-09T13:34:04.280Z,60.70
2023-02-09T13:37:13.340Z,60.80
2023-02-09T13:39:44.225Z,60.10
2023-02-09T13:42:24.491Z,59.90
2023-02-09T13:44:57.070Z,59.70
2023-02-09T13:47:38.488Z,59.60
2023-02-09T13:51:43.287Z,59.70
2023-02-09T13:54:23.996Z,59.10
2023-02-09T13:56:53.461Z,59.60
2023-02-09T13:59:21.857Z,59.30
2023-02-09T14:01:51.894Z,58.70
2023-02-09T14:04:39.759Z,59.20
2023-02-09T14:07:11.587Z,59.40
2023-02-09T14:09:46.477Z,59.80
2023-02-09T14:12:55.800Z,59.00
2023-02-09T14:15:49.685Z,59.10
2023-02-09T14:18:29.752Z,59.10
2023-02-09T14:21:01.928Z,58.70
2023-02-09T14:23:35.049Z,58.90
2023-02-09T14:26:06.611Z,59.00
2023-02-09T14:28:37.904Z,59.70
2023-02-09T14:31:07.490Z,59.60
2023-02-09T14:33:37.647Z,59.70
2023-02-09T14:36:07.643Z,59.80
2023-02-09T14:38:38.935Z,59.40
2023-02-09T14:41:25.903Z,59.70
2023-02-09T14:44:00.543Z,59.60
2023-02-09T14:46:28.574Z,60.00
2023-02-09T14:48:58.167Z,59.70
2023-02-09T14:51:27.669Z,59.80
2023-02-09T14:53:58.010Z,59.60
2023-02-09T14:56:37.078Z,60.00
2023-02-09T14:59:20.503Z,60.30
2023-02-09T15:04:51.457Z,59.70
2023-02-09T15:07:57.790Z,59.60
2023-02-09T15:10:36.923Z,59.70
2023-02-09T15:13:38.406Z,59.80
2023-02-09T15:16:18.100Z,59.90
2023-02-09T15:19:24.873Z,59.50
2023-02-09T15:22:48.897Z,60.50
2023-02-09T15:25:41.842Z,60.10
2023-02-09T15:28:28.896Z,60.00
2023-02-09T15:31:56.763Z,60.60
2023-02-09T15:34:40.004Z,59.60
2023-02-09T15:37:35.334Z,59.80
2023-02-09T15:40:18.137Z,60.10
2023-02-09T15:43:12.704Z,60.00
2023-02-09T15:46:05.498Z,60.60
2023-02-09T15:49:54.579Z,60.50
2023-02-09T15:52:30.291Z,61.10
2023-02-09T15:55:07.933Z,60.70
2023-02-09T15:57:37.960Z,60.80
2023-02-09T16:00:17.148Z,61.30
2023-02-09T16:02:55.436Z,61.40
2023-02-09T16:05:30.440Z,61.60
2023-02-09T16:08:21.611Z,61.80
2023-02-09T16:11:38.373Z,61.60
2023-02-09T16:17:05.810Z,62.20
2023-02-09T16:19:35.283Z,62.00
2023-02-09T16:37:32.307Z,62.30
2023-02-09T16:40:04.253Z,62.70
2023-02-09T16:42:36.369Z,62.70
2023-02-09T16:45:41.153Z,63.00
2023-02-09T16:48:41.344Z,62.60
2023-02-09T16:51:44.259Z,63.00
2023-02-09T16:54:17.409Z,62.90
2023-02-09T16:56:54.651Z,63.40
2023-02-09T16:59:56.689Z,63.20
2023-02-09T17:02:42.639Z,63.30
2023-02-09T17:05:27.627Z,63.60
2023-02-09T17:08:19.057Z,63.60
2023-02-09T17:10:51.904Z,63.50
2023-02-09T17:13:25.015Z,63.60
2023-02-09T17:15:57.620Z,63.60
2023-02-09T17:18:44.228Z,64.20
2023-02-09T17:21:19.711Z,64.20
2023-02-09T17:23:48.642Z,64.40
2023-02-09T17:26:19.717Z,64.00
2023-02-09T17:28:49.162Z,64.30
2023-02-09T17:32:39.152Z,64.00
2023-02-09T17:35:44.593Z,65.00
2023-02-09T17:38:24.488Z,64.50
2023-02-09T17:41:01.376Z,65.20
2023-02-09T17:43:30.683Z,66.00
2023-02-09T17:46:00.026Z,65.60
2023-02-09T17:49:18.668Z,65.40
2023-02-09T17:51:47.846Z,65.90
2023-02-09T17:54:18.883Z,66.30
2023-02-09T17:56:50.649Z,66.30
2023-02-09T17:59:21.770Z,66.60
2023-02-09T18:01:51.050Z,66.90
2023-02-09T18:07:29.687Z,67.50
2023-02-09T18:09:58.639Z,67.40
2023-02-09T18:12:32.901Z,67.20
2023-02-09T18:15:08.674Z,68.00
2023-02-09T18:17:42.743Z,68.00
2023-02-09T18:29:03.768Z,68.60
2023-02-09T18:31:34.506Z,68.40
2023-02-09T18:37:08.243Z,68.70
2023-02-09T18:39:38.885Z,69.00
2023-02-09T18:45:23.755Z,69.40
2023-02-09T18:47:52.745Z,69.50
2023-02-09T18:50:24.511Z,69.90
2023-02-09T18:52:55.304Z,70.20
2023-02-09T18:55:29.904Z,70.20
2023-02-09T18:58:22.616Z,70.50
2023-02-09T19:00:55.541Z,70.30
2023-02-09T19:03:23.396Z,71.10
2023-02-09T19:05:52.050Z,70.80
2023-02-09T19:08:19.536Z,71.10
2023-02-09T19:10:47.126Z,71.40
2023-02-09T19:13:17.539Z,71.70
2023-02-09T19:15:47.674Z,71.40
2023-02-09T19:18:19.860Z,71.70
2023-02-09T19:20:47.605Z,72.40
2023-02-09T19:23:15.120Z,71.80
2023-02-09T19:25:43.894Z,71.90
2023-02-09T19:28:12.565Z,72.10
2023-02-09T19:30:41.930Z,71.60
2023-02-09T19:33:10.477Z,71.70
2023-02-09T19:35:39.164Z,72.50
2023-02-09T19:38:08.777Z,72.60
2023-02-09T19:40:40.629Z,72.60
2023-02-09T19:43:08.108Z,73.10
2023-02-09T19:45:38.480Z,73.00
2023-02-09T19:48:08.657Z,73.00
2023-02-09T19:50:37.186Z,73.30
2023-02-09T19:53:08.049Z,72.90
2023-02-09T19:55:35.590Z,73.00
2023-02-09T19:58:03.247Z,72.90
2023-02-09T20:00:32.510Z,73.20
2023-02-09T20:03:00.464Z,73.20
2023-02-09T20:05:28.005Z,73.50
2023-02-09T20:07:57.178Z,73.20
2023-02-09T20:10:24.747Z,73.40
2023-02-09T20:12:52.771Z,73.10
2023-02-09T20:15:20.211Z,74.40
2023-02-09T20:20:15.460Z,73.40
2023-02-09T20:22:43.177Z,73.30
2023-02-09T20:25:13.122Z,73.70
2023-02-09T20:27:41.014Z,73.80
2023-02-09T20:30:09.355Z,73.80
2023-02-09T20:32:37.022Z,74.00
2023-02-09T20:35:05.625Z,74.10
2023-02-09T20:37:33.180Z,74.40
2023-02-09T20:40:01.479Z,74.30
2023-02-09T20:42:47.596Z,74.70
2023-02-09T20:45:37.499Z,74.70
2023-02-09T20:48:05.641Z,74.80
2023-02-09T20:50:42.740Z,74.90
2023-02-09T20:53:11.009Z,74.80
2023-02-09T20:55:38.540Z,74.40
2023-02-09T20:58:06.324Z,74.40
2023-02-09T21:00:34.122Z,74.60
2023-02-09T21:03:01.637Z,75.20
2023-02-09T21:05:29.069Z,74.50
2023-02-09T21:07:56.471Z,74.40
2023-02-09T21:10:24.015Z,74.20
2023-02-09T21:12:51.520Z,74.10
2023-02-09T21:15:19.193Z,75.20
2023-02-09T21:17:51.488Z,74.50
2023-02-09T21:20:19.040Z,74.50
2023-02-09T21:22:46.745Z,74.40
2023-02-09T21:25:14.337Z,74.50
2023-02-09T21:27:41.832Z,74.60
2023-02-09T21:30:10.084Z,74.70
2023-02-09T21:32:38.516Z,74.90
2023-02-09T21:35:10.326Z,75.20
2023-02-09T21:37:38.889Z,75.00
2023-02-09T21:40:07.170Z,75.40
2023-02-09T21:42:36.856Z,75.30
2023-02-09T21:45:04.655Z,75.60
2023-02-09T21:47:35.818Z,75.90
2023-02-09T21:50:03.643Z,76.30
2023-02-09T21:52:31.634Z,76.60
2023-02-09T21:54:59.682Z,76.50
2023-02-09T21:57:28.862Z,76.50
2023-02-09T21:59:56.783Z,76.20
2023-02-09T22:02:24.215Z,76.70
2023-02-09T22:04:52.608Z,76.20
2023-02-09T22:07:20.007Z,76.80
2023-02-09T22:09:47.500Z,76.70
2023-02-09T22:12:15.053Z,76.80
2023-02-09T22:14:42.547Z,76.50
2023-02-09T22:17:10.054Z,76.40
2023-02-09T22:19:37.655Z,76.60
2023-02-09T22:22:05.219Z,76.80
2023-02-09T22:24:34.943Z,76.90
2023-02-09T22:27:03.493Z,77.30
2023-02-09T22:29:33.355Z,77.10
2023-02-09T22:32:01.553Z,77.20
2023-02-09T22:34:29.296Z,77.00
2023-02-09T22:36:56.790Z,76.70
2023-02-09T22:39:24.265Z,76.60
2023-02-09T22:41:54.323Z,76.90
2023-02-09T22:44:21.889Z,76.80
2023-02-09T22:46:49.390Z,76.40
2023-02-09T22:49:19.579Z,76.50
2023-02-09T22:51:48.738Z,76.80
2023-02-09T22:54:18.940Z,76.80
2023-02-09T22:56:46.881Z,77.10
2023-02-09T22:59:15.419Z,77.20
2023-02-09T23:01:43.826Z,77.50
2023-02-09T23:04:11.721Z,77.60
2023-02-09T23:06:39.394Z,77.60
2023-02-09T23:09:07.525Z,77.50
2023-02-09T23:11:35.980Z,77.80
2023-02-09T23:14:09.632Z,78.10
2023-02-09T23:16:39.786Z,78.10
2023-02-09T23:19:10.987Z,78.10
2023-02-09T23:21:40.752Z,78.20
2023-02-09T23:24:09.218Z,78.00
2023-02-09T23:26:38.007Z,78.00
2023-02-09T23:29:08.492Z,78.10
2023-02-09T23:31:36.350Z,78.00
2023-02-09T23:34:04.374Z,78.30
2023-02-09T23:36:32.880Z,79.20
2023-02-09T23:39:04.869Z,79.20
2023-02-09T23:41:33.034Z,79.20
2023-02-09T23:44:00.679Z,79.30
2023-02-09T23:46:29.363Z,79.50
2023-02-09T23:48:57.781Z,79.70
2023-02-09T23:51:31.124Z,79.80
2023-02-09T23:54:01.749Z,79.90
2023-02-09T23:56:36.686Z,80.10
2023-02-09T23:59:09.587Z,80.00
